Time;durP1;ratioP1;P1;durP2;ratioP2;P2;SDS_P1;SDS_P2;PMS_P1;PMS_P2;Temp;Humidity;BMP_temperature;BMP_pressure;BME280_temperature;BME280_humidity;BME280_pressure;Samples;Min_cycle;Max_cycle;Signal;HPM_P1;HPM_P2
2021/07/31 00:00:30;;;;;;;2.30;1.92;;;;;;;;;;2088122;28;20175;-61
2021/07/31 00:01:30;;;;;;;2.00;1.63;;;;;;;;;;2088793;28;20187;-54
2021/07/31 00:02:30;;;;;;;2.63;2.10;;;;;;;;;;2085699;28;20223;-58
2021/07/31 00:03:31;;;;;;;2.22;2.03;;;;;;;;;;2073928;28;20165;-59
2021/07/31 00:04:31;;;;;;;4.45;2.20;;;;;;;;;;2087742;28;20759;-55
2021/07/31 00:05:31;;;;;;;2.55;2.35;;;;;;;;;;2089226;28;20577;-59
2021/07/31 00:06:31;;;;;;;6.15;2.00;;;;;;;;;;2084460;28;20171;-55
2021/07/31 00:07:32;;;;;;;4.63;2.13;;;;;;;;;;2084261;28;20251;-56
2021/07/31 00:08:32;;;;;;;3.47;1.98;;;;;;;;;;2079697;28;20198;-57
2021/07/31 00:09:33;;;;;;;5.80;2.20;;;;;;;;;;2089111;28;20226;-56
2021/07/31 00:10:33;;;;;;;4.43;2.35;;;;;;;;;;2087930;28;20663;-55
2021/07/31 00:11:33;;;;;;;2.40;2.20;;;;;;;;;;2087844;28;20163;-55
2021/07/31 00:12:33;;;;;;;3.08;2.33;;;;;;;;;;2089852;28;20272;-60
2021/07/31 00:13:33;;;;;;;3.40;3.10;;;;;;;;;;2083577;28;20195;-57
2021/07/31 00:14:34;;;;;;;3.03;2.40;;;;;;;;;;2082451;28;20218;-59
2021/07/31 00:15:35;;;;;;;3.10;2.42;;;;;;;;;;2088474;28;20651;-58
2021/07/31 00:16:35;;;;;;;3.70;2.38;;;;;;;;;;2088798;28;20579;-58
2021/07/31 00:17:35;;;;;;;2.97;2.35;;;;;;;;;;2085287;28;20168;-57
2021/07/31 00:18:35;;;;;;;5.85;2.30;;;;;;;;;;2082617;28;20188;-58
2021/07/31 00:19:36;;;;;;;3.40;2.40;;;;;;;;;;2084098;28;20652;-58
2021/07/31 00:20:37;;;;;;;4.45;2.42;;;;;;;;;;2089822;28;20190;-55
2021/07/31 00:21:37;;;;;;;5.03;2.50;;;;;;;;;;2083344;28;20239;-56
2021/07/31 00:22:37;;;;;;;2.83;2.10;;;;;;;;;;2089222;28;20183;-58
2021/07/31 00:23:37;;;;;;;2.70;2.13;;;;;;;;;;2083165;28;20188;-57
2021/07/31 00:24:38;;;;;;;2.22;2.00;;;;;;;;;;2090012;28;20226;-58
2021/07/31 00:25:38;;;;;;;3.85;2.35;;;;;;;;;;2083934;28;20174;-55
2021/07/31 00:26:38;;;;;;;3.85;2.53;;;;;;;;;;2089652;28;20183;-56
2021/07/31 00:27:38;;;;;;;3.35;2.45;;;;;;;;;;2090070;28;20821;-56
2021/07/31 00:28:39;;;;;;;5.18;2.50;;;;;;;;;;2084072;28;20176;-56
2021/07/31 00:29:39;;;;;;;2.10;2.00;;;;;;;;;;2089929;28;20249;-58
2021/07/31 00:30:39;;;;;;;5.30;2.45;;;;;;;;;;2090905;28;20266;-59
2021/07/31 00:31:39;;;;;;;2.83;2.50;;;;;;;;;;2086656;28;20168;-56
2021/07/31 00:32:40;;;;;;;4.30;2.80;;;;;;;;;;2082651;28;20237;-57
2021/07/31 00:33:40;;;;;;;5.20;2.38;;;;;;;;;;2086823;28;20255;-57
2021/07/31 00:34:40;;;;;;;2.95;2.45;;;;;;;;;;2083300;28;20192;-54
2021/07/31 00:35:40;;;;;;;3.30;2.60;;;;;;;;;;2084777;28;20176;-53
2021/07/31 00:36:41;;;;;;;3.38;2.60;;;;;;;;;;2089615;28;20175;-56
2021/07/31 00:37:41;;;;;;;3.55;2.70;;;;;;;;;;2084445;28;20176;-58
2021/07/31 00:38:43;;;;;;;3.10;2.60;;;;;;;;;;2090013;28;20164;-54
2021/07/31 00:39:43;;;;;;;2.90;2.30;;;;;;;;;;2090751;28;20175;-53
2021/07/31 00:40:43;;;;;;;3.15;2.63;;;;;;;;;;2081729;28;20263;-54
2021/07/31 00:41:43;;;;;;;2.70;2.50;;;;;;;;;;2082204;28;20180;-54
2021/07/31 00:42:44;;;;;;;3.15;2.58;;;;;;;;;;2089346;28;20646;-56
2021/07/31 00:43:44;;;;;;;4.03;2.75;;;;;;;;;;2081276;28;20172;-58
2021/07/31 00:44:45;;;;;;;2.90;2.70;;;;;;;;;;2084575;28;20207;-57
2021/07/31 00:45:46;;;;;;;4.75;2.63;;;;;;;;;;2082883;28;20672;-56
2021/07/31 00:46:46;;;;;;;3.42;2.75;;;;;;;;;;2087489;28;20176;-55
2021/07/31 00:47:47;;;;;;;5.85;2.85;;;;;;;;;;2088607;28;20176;-54
2021/07/31 00:48:48;;;;;;;3.50;2.92;;;;;;;;;;2086605;28;20643;-58
2021/07/31 00:49:48;;;;;;;7.47;3.00;;;;;;;;;;2082286;28;20192;-54
2021/07/31 00:50:49;;;;;;;3.35;2.67;;;;;;;;;;2083259;28;20212;-55
2021/07/31 00:51:49;;;;;;;5.50;2.90;;;;;;;;;;2089204;28;20179;-54
2021/07/31 00:52:49;;;;;;;3.47;2.75;;;;;;;;;;2082485;28;20196;-59
2021/07/31 00:53:50;;;;;;;2.63;2.40;;;;;;;;;;2082394;28;20539;-54
2021/07/31 00:54:51;;;;;;;3.45;2.97;;;;;;;;;;2082767;28;20191;-55
2021/07/31 00:55:54;;;;;;;3.08;2.88;;;;;;;;;;2087326;28;20171;-53
2021/07/31 00:56:54;;;;;;;2.83;2.53;;;;;;;;;;2082483;28;20749;-56
2021/07/31 00:57:56;;;;;;;12.10;3.78;;;;;;;;;;2088836;28;20186;-59
2021/07/31 00:59:06;;;;;;;4.15;2.50;;;;;;;;;;2077561;28;20201;-57
2021/07/31 01:00:09;;;;;;;2.85;2.60;;;;;;;;;;2077854;28;20161;-59
2021/07/31 01:01:09;;;;;;;3.08;2.75;;;;;;;;;;2081975;28;20176;-59
2021/07/31 01:02:10;;;;;;;5.03;2.80;;;;;;;;;;2081256;28;20251;-59
2021/07/31 01:03:10;;;;;;;2.85;2.60;;;;;;;;;;2086021;28;20679;-59
2021/07/31 01:04:10;;;;;;;12.57;2.90;;;;;;;;;;2088145;28;20206;-59
2021/07/31 01:05:11;;;;;;;3.17;2.40;;;;;;;;;;2081122;28;20199;-60
2021/07/31 01:06:12;;;;;;;2.70;2.50;;;;;;;;;;2082608;28;20234;-58
2021/07/31 01:07:12;;;;;;;6.10;2.83;;;;;;;;;;2082388;28;20597;-57
2021/07/31 01:08:13;;;;;;;2.88;2.60;;;;;;;;;;2085060;28;20190;-59
2021/07/31 01:09:13;;;;;;;3.70;2.60;;;;;;;;;;2086375;28;20210;-58
2021/07/31 01:10:14;;;;;;;5.53;3.25;;;;;;;;;;2086734;28;20254;-60
2021/07/31 01:11:17;;;;;;;7.55;2.92;;;;;;;;;;2089536;28;20214;-56
2021/07/31 01:12:17;;;;;;;3.63;2.83;;;;;;;;;;2079146;28;20255;-57
2021/07/31 01:13:18;;;;;;;3.70;2.75;;;;;;;;;;2082160;28;20204;-61
2021/07/31 01:14:19;;;;;;;3.60;2.70;;;;;;;;;;2081838;28;20226;-55
2021/07/31 01:15:19;;;;;;;3.70;2.42;;;;;;;;;;2084218;28;20267;-57
2021/07/31 01:16:21;;;;;;;5.38;3.05;;;;;;;;;;2089466;28;20257;-55
2021/07/31 01:17:21;;;;;;;3.83;3.10;;;;;;;;;;2076748;28;20196;-58
2021/07/31 01:18:21;;;;;;;3.38;2.63;;;;;;;;;;2086255;28;20180;-58
2021/07/31 01:19:22;;;;;;;5.43;2.88;;;;;;;;;;2088471;28;20767;-58
2021/07/31 01:20:23;;;;;;;4.50;2.78;;;;;;;;;;2085241;28;20223;-53
2021/07/31 01:21:35;;;;;;;2.90;2.35;;;;;;;;;;2088133;28;20552;-58
2021/07/31 01:22:37;;;;;;;3.10;2.50;;;;;;;;;;2081319;28;20577;-58
2021/07/31 01:23:44;;;;;;;3.97;2.80;;;;;;;;;;2086281;28;20631;-58
2021/07/31 01:24:44;;;;;;;3.92;2.90;;;;;;;;;;2092007;28;20191;-56
2021/07/31 01:25:46;;;;;;;5.53;2.65;;;;;;;;;;2081494;28;20599;-55
2021/07/31 01:26:47;;;;;;;3.72;2.75;;;;;;;;;;2071016;28;20181;-54
2021/07/31 01:27:47;;;;;;;6.57;3.03;;;;;;;;;;2066615;28;20621;-55
2021/07/31 01:28:48;;;;;;;4.60;3.08;;;;;;;;;;2089173;28;20205;-56
2021/07/31 01:29:49;;;;;;;3.90;2.67;;;;;;;;;;2082365;28;20219;-56
2021/07/31 01:30:49;;;;;;;3.03;2.72;;;;;;;;;;2088852;28;20159;-59
2021/07/31 01:31:50;;;;;;;5.63;3.05;;;;;;;;;;2088567;28;20564;-56
2021/07/31 01:32:52;;;;;;;2.95;2.70;;;;;;;;;;2088395;28;20310;-54
2021/07/31 01:33:53;;;;;;;4.60;2.90;;;;;;;;;;2083618;28;20176;-52
2021/07/31 01:34:54;;;;;;;5.25;3.00;;;;;;;;;;2087502;28;20203;-57
2021/07/31 01:35:56;;;;;;;5.85;2.88;;;;;;;;;;2082591;28;20241;-58
2021/07/31 01:37:07;;;;;;;3.67;2.92;;;;;;;;;;2087042;28;21082;-56
2021/07/31 01:38:08;;;;;;;8.57;2.85;;;;;;;;;;2084968;28;20203;-58
2021/07/31 01:39:08;;;;;;;2.90;2.70;;;;;;;;;;2084063;28;20168;-52
2021/07/31 01:40:09;;;;;;;2.65;2.45;;;;;;;;;;2084890;28;20169;-54
2021/07/31 01:41:09;;;;;;;3.75;2.80;;;;;;;;;;2084256;28;20176;-54
2021/07/31 01:42:09;;;;;;;5.82;3.05;;;;;;;;;;2085786;28;20196;-56
2021/07/31 01:43:12;;;;;;;9.40;3.05;;;;;;;;;;2085982;28;20171;-58
2021/07/31 01:44:14;;;;;;;6.22;3.08;;;;;;;;;;2085373;28;20184;-58
2021/07/31 01:45:14;;;;;;;2.72;2.53;;;;;;;;;;2084804;28;20195;-59
2021/07/31 01:46:17;;;;;;;6.88;2.55;;;;;;;;;;2084325;28;20315;-57
2021/07/31 01:47:18;;;;;;;2.95;2.72;;;;;;;;;;2074710;28;20168;-54
2021/07/31 01:48:18;;;;;;;2.72;2.53;;;;;;;;;;2089060;28;20564;-56
2021/07/31 01:49:19;;;;;;;3.78;2.17;;;;;;;;;;2088945;28;20167;-55
2021/07/31 01:50:27;;;;;;;2.85;2.10;;;;;;;;;;2089353;28;20178;-56
2021/07/31 01:51:28;;;;;;;5.22;2.58;;;;;;;;;;2083970;28;20752;-56
2021/07/31 01:52:28;;;;;;;4.50;2.90;;;;;;;;;;2086795;28;20195;-53
2021/07/31 01:53:29;;;;;;;2.67;2.22;;;;;;;;;;2079557;28;20175;-56
2021/07/31 01:54:31;;;;;;;3.38;2.70;;;;;;;;;;2088672;28;20185;-57
2021/07/31 01:55:31;;;;;;;3.80;2.47;;;;;;;;;;2083282;28;20641;-54
2021/07/31 01:56:36;;;;;;;2.53;2.28;;;;;;;;;;2088451;28;20183;-53
2021/07/31 01:57:38;;;;;;;4.35;2.92;;;;;;;;;;2084560;28;20655;-58
2021/07/31 01:58:50;;;;;;;7.57;2.53;;;;;;;;;;2081949;28;20302;-53
2021/07/31 01:59:51;;;;;;;4.90;2.35;;;;;;;;;;2087501;28;20187;-56
2021/07/31 02:00:54;;;;;;;5.15;2.53;;;;;;;;;;2072918;28;20177;-53
2021/07/31 02:01:54;;;;;;;5.65;2.50;;;;;;;;;;2088377;28;20682;-54
2021/07/31 02:02:58;;;;;;;2.30;2.15;;;;;;;;;;2087047;28;20211;-55
2021/07/31 02:04:04;;;;;;;5.63;2.67;;;;;;;;;;2075501;28;20549;-53
2021/07/31 02:05:24;;;;;;;5.30;2.70;;;;;;;;;;2076564;28;20215;-57
2021/07/31 02:06:26;;;;;;;3.42;2.55;;;;;;;;;;2074868;28;20188;-55
2021/07/31 02:07:27;;;;;;;2.78;2.58;;;;;;;;;;2076531;28;20180;-51
2021/07/31 02:08:28;;;;;;;3.17;2.28;;;;;;;;;;2078302;28;20251;-57
2021/07/31 02:09:30;;;;;;;3.92;2.50;;;;;;;;;;2085800;28;20172;-57
2021/07/31 02:10:31;;;;;;;4.13;2.42;;;;;;;;;;2088695;28;20163;-58
2021/07/31 02:11:31;;;;;;;2.75;2.55;;;;;;;;;;2082077;28;20175;-55
2021/07/31 02:12:36;;;;;;;3.88;2.17;;;;;;;;;;2087958;28;20271;-55
2021/07/31 02:13:40;;;;;;;3.90;2.55;;;;;;;;;;2088308;28;20761;-57
2021/07/31 02:14:41;;;;;;;3.25;2.50;;;;;;;;;;2083886;28;20239;-53
2021/07/31 02:15:45;;;;;;;3.00;2.42;;;;;;;;;;2072758;28;20185;-58
2021/07/31 02:16:48;;;;;;;3.20;2.90;;;;;;;;;;2081216;28;20646;-58
2021/07/31 02:17:52;;;;;;;3.55;2.55;;;;;;;;;;2083170;28;20706;-53
2021/07/31 02:18:52;;;;;;;3.97;2.38;;;;;;;;;;2082547;28;20259;-55
2021/07/31 02:19:53;;;;;;;5.07;2.38;;;;;;;;;;2081963;28;20174;-56
2021/07/31 02:21:19;;;;;;;5.60;2.40;;;;;;;;;;2081035;28;20254;-54
2021/07/31 02:22:39;;;;;;;2.67;2.47;;;;;;;;;;2090828;28;20685;-56
2021/07/31 02:24:14;;;;;;;3.00;2.50;;;;;;;;;;2084902;28;20184;-55
2021/07/31 02:25:33;;;;;;;4.82;2.75;;;;;;;;;;2088429;28;20622;-58
2021/07/31 02:26:52;;;;;;;3.80;2.30;;;;;;;;;;2088459;28;20151;-53
2021/07/31 02:27:59;;;;;;;4.15;2.67;;;;;;;;;;2082262;28;20179;-53
2021/07/31 02:29:00;;;;;;;3.60;2.75;;;;;;;;;;2086283;28;20504;-55
2021/07/31 02:30:03;;;;;;;4.32;2.63;;;;;;;;;;2077793;28;20818;-54
2021/07/31 02:31:06;;;;;;;3.53;2.53;;;;;;;;;;2072352;28;20184;-51
2021/07/31 02:32:08;;;;;;;3.35;2.60;;;;;;;;;;2076200;28;20192;-56
2021/07/31 02:33:08;;;;;;;4.25;3.15;;;;;;;;;;2096554;23;20259;-48
2021/07/31 02:34:09;;;;;;;3.92;2.55;;;;;;;;;;2078993;28;20187;-50
2021/07/31 02:35:13;;;;;;;2.85;2.42;;;;;;;;;;2085335;28;20729;-48
2021/07/31 02:36:36;;;;;;;5.30;2.78;;;;;;;;;;2061256;28;20574;-49
2021/07/31 02:37:43;;;;;;;3.00;2.40;;;;;;;;;;2094619;28;20229;-54
2021/07/31 02:38:44;;;;;;;4.95;2.50;;;;;;;;;;2086707;28;20272;-51
2021/07/31 02:39:45;;;;;;;4.85;2.75;;;;;;;;;;2071047;28;20185;-50
2021/07/31 02:40:45;;;;;;;2.83;2.55;;;;;;;;;;2080323;28;20183;-52
2021/07/31 02:41:46;;;;;;;3.67;2.83;;;;;;;;;;2073735;28;20172;-51
2021/07/31 02:42:47;;;;;;;3.47;2.33;;;;;;;;;;2080044;28;20186;-50
2021/07/31 02:43:47;;;;;;;3.55;2.70;;;;;;;;;;2072645;28;20183;-51
2021/07/31 02:44:47;;;;;;;5.03;2.58;;;;;;;;;;2066741;28;20255;-50
2021/07/31 02:45:53;;;;;;;5.18;2.47;;;;;;;;;;2072160;28;20677;-54
2021/07/31 02:46:54;;;;;;;2.53;2.33;;;;;;;;;;2072793;28;20183;-49
2021/07/31 02:47:54;;;;;;;3.95;2.28;;;;;;;;;;2078378;28;20258;-51
2021/07/31 02:48:56;;;;;;;2.83;2.58;;;;;;;;;;2072563;28;20169;-48
2021/07/31 02:49:56;;;;;;;4.22;2.42;;;;;;;;;;2074100;28;20173;-52
2021/07/31 02:51:04;;;;;;;5.70;2.65;;;;;;;;;;2075476;28;20184;-51
2021/07/31 02:52:30;;;;;;;4.47;2.47;;;;;;;;;;2075767;28;20215;-50
2021/07/31 02:53:33;;;;;;;2.88;2.60;;;;;;;;;;2081324;28;20263;-49
2021/07/31 02:54:34;;;;;;;4.93;2.55;;;;;;;;;;2074808;28;20533;-51
2021/07/31 02:55:38;;;;;;;4.35;2.70;;;;;;;;;;2079326;28;20588;-49
2021/07/31 02:56:39;;;;;;;3.80;2.30;;;;;;;;;;2074052;28;20181;-50
2021/07/31 02:57:45;;;;;;;3.72;2.65;;;;;;;;;;2072462;28;20598;-51
2021/07/31 02:58:46;;;;;;;2.83;2.55;;;;;;;;;;2072785;28;20179;-50
2021/07/31 02:59:46;;;;;;;2.88;2.60;;;;;;;;;;2073786;28;20180;-50
2021/07/31 03:00:51;;;;;;;3.45;2.70;;;;;;;;;;2080330;28;20695;-50
2021/07/31 03:01:51;;;;;;;4.75;2.67;;;;;;;;;;2064047;28;20264;-51
2021/07/31 03:02:52;;;;;;;3.55;2.67;;;;;;;;;;2072322;28;20197;-50
2021/07/31 03:03:54;;;;;;;3.70;2.50;;;;;;;;;;2074522;28;20737;-50
2021/07/31 03:04:55;;;;;;;4.22;2.33;;;;;;;;;;2066519;28;20710;-52
2021/07/31 03:05:57;;;;;;;3.53;3.08;;;;;;;;;;2071438;28;20181;-50
2021/07/31 03:06:59;;;;;;;3.40;2.80;;;;;;;;;;2073721;28;20169;-53
2021/07/31 03:08:00;;;;;;;3.03;2.63;;;;;;;;;;2071621;28;20209;-50
2021/07/31 03:09:01;;;;;;;5.47;2.60;;;;;;;;;;2072169;28;20161;-50
2021/07/31 03:10:02;;;;;;;4.28;2.88;;;;;;;;;;2077707;28;20187;-50
2021/07/31 03:11:09;;;;;;;4.80;2.83;;;;;;;;;;2067461;28;20290;-50
2021/07/31 03:12:10;;;;;;;2.63;2.42;;;;;;;;;;2067942;28;20231;-50
2021/07/31 03:13:11;;;;;;;3.22;2.67;;;;;;;;;;2079212;28;20180;-50
2021/07/31 03:14:13;;;;;;;5.55;3.25;;;;;;;;;;2077321;28;20592;-52
2021/07/31 03:15:14;;;;;;;3.30;2.47;;;;;;;;;;2075682;28;20872;-50
2021/07/31 03:16:14;;;;;;;2.72;2.53;;;;;;;;;;2072317;28;20192;-50
2021/07/31 03:17:21;;;;;;;4.50;2.30;;;;;;;;;;2075559;28;20169;-49
2021/07/31 03:18:22;;;;;;;3.03;2.40;;;;;;;;;;2077464;28;20614;-50
2021/07/31 03:19:23;;;;;;;3.95;2.58;;;;;;;;;;2072128;28;20173;-50
2021/07/31 03:20:30;;;;;;;3.78;2.53;;;;;;;;;;2071014;28;20244;-51
2021/07/31 03:21:34;;;;;;;5.07;2.40;;;;;;;;;;2078566;28;20187;-52
2021/07/31 03:22:41;;;;;;;7.53;2.60;;;;;;;;;;2078441;28;20176;-51
2021/07/31 03:23:42;;;;;;;3.20;2.42;;;;;;;;;;2079774;28;20183;-50
2021/07/31 03:24:43;;;;;;;4.30;2.90;;;;;;;;;;2072858;28;20173;-51
2021/07/31 03:25:43;;;;;;;4.07;2.55;;;;;;;;;;2080027;28;20247;-49
2021/07/31 03:26:44;;;;;;;4.05;2.88;;;;;;;;;;2080359;28;20180;-54
2021/07/31 03:27:52;;;;;;;3.72;2.58;;;;;;;;;;2071607;28;20860;-49
2021/07/31 03:29:03;;;;;;;4.20;2.53;;;;;;;;;;2072763;28;20252;-51
2021/07/31 03:30:04;;;;;;;4.45;2.90;;;;;;;;;;2072513;28;20183;-50
2021/07/31 03:31:16;;;;;;;3.38;2.60;;;;;;;;;;2072376;28;20660;-52
2021/07/31 03:32:18;;;;;;;3.63;2.25;;;;;;;;;;2072581;28;20168;-50
2021/07/31 03:33:18;;;;;;;2.97;2.65;;;;;;;;;;2067619;28;20234;-50
2021/07/31 03:34:21;;;;;;;3.67;2.45;;;;;;;;;;2064235;28;20674;-50
2021/07/31 03:35:22;;;;;;;5.40;2.55;;;;;;;;;;2071603;28;20181;-51
2021/07/31 03:36:41;;;;;;;6.40;2.53;;;;;;;;;;2080998;28;20196;-51
2021/07/31 03:37:43;;;;;;;3.80;2.47;;;;;;;;;;2081130;28;20670;-49
2021/07/31 03:38:44;;;;;;;2.80;2.10;;;;;;;;;;2081433;28;20186;-50
2021/07/31 03:39:44;;;;;;;2.78;2.55;;;;;;;;;;2077464;28;20758;-53
2021/07/31 03:40:45;;;;;;;4.13;2.85;;;;;;;;;;2080389;28;20187;-50
2021/07/31 03:41:47;;;;;;;4.05;2.83;;;;;;;;;;2072612;28;20180;-47
2021/07/31 03:42:47;;;;;;;5.07;2.75;;;;;;;;;;2080539;28;20242;-50
2021/07/31 03:43:48;;;;;;;4.22;2.72;;;;;;;;;;2064482;28;20212;-51
2021/07/31 03:44:48;;;;;;;2.70;2.42;;;;;;;;;;2064291;28;20237;-50
2021/07/31 03:45:49;;;;;;;4.28;2.63;;;;;;;;;;2072563;28;20235;-50
2021/07/31 03:46:51;;;;;;;3.35;2.55;;;;;;;;;;2073251;28;20219;-49
2021/07/31 03:47:56;;;;;;;4.15;2.80;;;;;;;;;;2075400;28;20176;-49
2021/07/31 03:48:57;;;;;;;6.00;2.78;;;;;;;;;;2081409;28;20180;-50
2021/07/31 03:49:59;;;;;;;3.80;2.42;;;;;;;;;;2081579;28;20160;-50
2021/07/31 03:51:00;;;;;;;3.88;2.60;;;;;;;;;;2081393;28;20182;-50
2021/07/31 03:52:07;;;;;;;4.25;2.80;;;;;;;;;;2081452;28;20157;-51
2021/07/31 03:53:08;;;;;;;3.22;2.53;;;;;;;;;;2079007;28;20273;-50
2021/07/31 03:54:12;;;;;;;3.13;2.65;;;;;;;;;;2073531;28;20181;-50
2021/07/31 03:55:12;;;;;;;3.22;2.40;;;;;;;;;;2074059;28;20604;-50
2021/07/31 03:56:13;;;;;;;4.18;2.45;;;;;;;;;;2076766;28;20202;-53
2021/07/31 03:57:17;;;;;;;3.20;2.60;;;;;;;;;;2076889;28;20177;-50
2021/07/31 03:58:21;;;;;;;6.40;2.58;;;;;;;;;;2073766;28;20184;-50
2021/07/31 03:59:22;;;;;;;6.38;2.50;;;;;;;;;;2074467;28;20195;-55
2021/07/31 04:00:22;;;;;;;3.92;2.88;;;;;;;;;;2075145;28;20177;-50
2021/07/31 04:01:30;;;;;;;3.90;2.67;;;;;;;;;;2075581;28;20181;-55
2021/07/31 04:02:35;;;;;;;3.83;2.35;;;;;;;;;;2068298;28;20250;-54
2021/07/31 04:03:36;;;;;;;5.13;2.67;;;;;;;;;;2068318;28;20170;-55
2021/07/31 04:04:37;;;;;;;4.15;2.45;;;;;;;;;;2068121;28;20193;-54
2021/07/31 04:05:39;;;;;;;5.75;2.33;;;;;;;;;;2077058;28;20201;-58
2021/07/31 04:07:03;;;;;;;3.80;2.63;;;;;;;;;;2070954;28;20184;-53
2021/07/31 04:08:22;;;;;;;3.53;2.70;;;;;;;;;;2083550;28;20168;-55
2021/07/31 04:09:52;;;;;;;2.67;2.47;;;;;;;;;;2085100;28;20188;-50
2021/07/31 04:11:11;;;;;;;2.92;2.72;;;;;;;;;;2078440;28;20177;-49
2021/07/31 04:12:30;;;;;;;2.63;2.42;;;;;;;;;;2081973;28;20168;-51
2021/07/31 04:14:03;;;;;;;2.60;2.50;;;;;;;;;;2065608;28;20178;-50
2021/07/31 04:15:17;;;;;;;3.45;2.60;;;;;;;;;;2077887;28;20168;-51
2021/07/31 04:16:17;;;;;;;5.38;2.78;;;;;;;;;;2087005;28;20195;-50
2021/07/31 04:17:18;;;;;;;6.13;2.65;;;;;;;;;;2082570;28;20176;-50
2021/07/31 04:18:20;;;;;;;3.97;2.65;;;;;;;;;;2073226;28;20165;-51
2021/07/31 04:19:20;;;;;;;5.18;3.13;;;;;;;;;;2082053;28;20176;-52
2021/07/31 04:20:22;;;;;;;4.38;2.60;;;;;;;;;;2081637;28;20172;-53
2021/07/31 04:21:25;;;;;;;3.40;2.72;;;;;;;;;;2081799;28;20168;-51
2021/07/31 04:22:26;;;;;;;3.13;2.92;;;;;;;;;;2079577;28;20235;-50
2021/07/31 04:23:27;;;;;;;3.90;2.40;;;;;;;;;;2068134;28;20255;-51
2021/07/31 04:24:29;;;;;;;5.28;2.50;;;;;;;;;;2071618;28;20553;-53
2021/07/31 04:25:30;;;;;;;6.82;2.88;;;;;;;;;;2078223;28;20314;-54
2021/07/31 04:26:30;;;;;;;3.38;2.50;;;;;;;;;;2075473;28;20173;-50
2021/07/31 04:27:31;;;;;;;5.10;2.97;;;;;;;;;;2076281;28;20186;-51
2021/07/31 04:28:31;;;;;;;4.30;2.85;;;;;;;;;;2080282;28;20656;-49
2021/07/31 04:29:32;;;;;;;3.45;2.65;;;;;;;;;;2082500;28;20255;-52
2021/07/31 04:30:33;;;;;;;4.50;3.28;;;;;;;;;;2082652;28;20173;-53
2021/07/31 04:31:34;;;;;;;5.43;2.97;;;;;;;;;;2082275;28;20172;-55
2021/07/31 04:32:34;;;;;;;3.65;2.95;;;;;;;;;;2082352;28;20515;-50
2021/07/31 04:33:34;;;;;;;3.42;2.78;;;;;;;;;;2077061;28;20582;-50
2021/07/31 04:34:35;;;;;;;5.97;2.95;;;;;;;;;;2074365;28;20248;-50
2021/07/31 04:35:35;;;;;;;5.80;3.22;;;;;;;;;;2074346;28;20180;-52
2021/07/31 04:36:35;;;;;;;4.53;2.85;;;;;;;;;;2074245;28;20661;-50
2021/07/31 04:37:36;;;;;;;3.97;2.35;;;;;;;;;;2074546;28;20555;-54
2021/07/31 04:38:36;;;;;;;4.85;3.30;;;;;;;;;;2082137;28;20258;-51
2021/07/31 04:39:37;;;;;;;5.03;2.72;;;;;;;;;;2082650;28;20178;-53
2021/07/31 04:40:38;;;;;;;3.50;3.20;;;;;;;;;;2082552;28;20655;-50
2021/07/31 04:41:38;;;;;;;4.70;2.97;;;;;;;;;;2079706;28;20199;-50
2021/07/31 04:42:38;;;;;;;6.10;3.28;;;;;;;;;;2078059;28;20567;-50
2021/07/31 04:43:38;;;;;;;5.60;3.30;;;;;;;;;;2079363;28;20237;-49
2021/07/31 04:44:39;;;;;;;4.20;2.88;;;;;;;;;;2081473;28;20172;-50
2021/07/31 04:45:39;;;;;;;7.93;3.53;;;;;;;;;;2081052;28;20563;-53
2021/07/31 04:46:39;;;;;;;3.17;2.83;;;;;;;;;;2078228;28;20179;-52
2021/07/31 04:47:40;;;;;;;8.02;3.15;;;;;;;;;;2084775;28;20171;-51
2021/07/31 04:48:40;;;;;;;5.03;3.28;;;;;;;;;;2085715;28;20726;-51
2021/07/31 04:49:41;;;;;;;5.28;3.13;;;;;;;;;;2082366;28;20188;-51
2021/07/31 04:50:41;;;;;;;3.88;3.13;;;;;;;;;;2080708;28;20188;-50
2021/07/31 04:51:43;;;;;;;6.60;3.08;;;;;;;;;;2079577;28;20251;-52
2021/07/31 04:52:43;;;;;;;3.55;3.20;;;;;;;;;;2081044;28;20967;-54
2021/07/31 04:53:43;;;;;;;3.05;2.50;;;;;;;;;;2079541;28;20234;-52
2021/07/31 04:54:44;;;;;;;4.95;3.10;;;;;;;;;;2080473;28;20183;-51
2021/07/31 04:55:44;;;;;;;3.22;2.90;;;;;;;;;;2073206;28;20568;-54
2021/07/31 04:56:44;;;;;;;3.13;2.85;;;;;;;;;;2078293;28;20184;-54
2021/07/31 04:57:44;;;;;;;4.32;2.72;;;;;;;;;;2074326;28;20548;-52
2021/07/31 04:58:45;;;;;;;3.88;2.90;;;;;;;;;;2080501;28;20172;-53
2021/07/31 04:59:45;;;;;;;5.40;2.80;;;;;;;;;;2081415;28;20184;-53
2021/07/31 05:00:46;;;;;;;3.83;2.92;;;;;;;;;;2080386;28;20192;-53
2021/07/31 05:01:46;;;;;;;3.30;2.83;;;;;;;;;;2080722;28;20829;-52
2021/07/31 05:02:46;;;;;;;3.15;2.92;;;;;;;;;;2081193;28;20172;-52
2021/07/31 05:03:47;;;;;;;5.88;2.95;;;;;;;;;;2078791;28;20645;-52
2021/07/31 05:04:47;;;;;;;5.85;2.95;;;;;;;;;;2074996;28;20181;-51
2021/07/31 05:05:47;;;;;;;4.22;3.15;;;;;;;;;;2080577;28;20196;-50
2021/07/31 05:06:48;;;;;;;3.75;3.15;;;;;;;;;;2087076;28;20194;-49
2021/07/31 05:07:48;;;;;;;4.00;3.33;;;;;;;;;;2081968;28;20247;-54
2021/07/31 05:08:49;;;;;;;6.40;2.80;;;;;;;;;;2087390;28;20570;-54
2021/07/31 05:09:49;;;;;;;3.90;2.83;;;;;;;;;;2080406;28;20176;-53
2021/07/31 05:10:50;;;;;;;4.15;2.90;;;;;;;;;;2086283;28;20160;-53
2021/07/31 05:11:50;;;;;;;3.38;3.08;;;;;;;;;;2077287;28;20264;-53
2021/07/31 05:12:51;;;;;;;5.72;3.30;;;;;;;;;;2071347;28;20561;-54
2021/07/31 05:13:51;;;;;;;3.85;2.95;;;;;;;;;;2076546;28;20184;-50
2021/07/31 05:14:52;;;;;;;4.85;3.00;;;;;;;;;;2084551;28;20167;-54
2021/07/31 05:15:52;;;;;;;5.63;3.42;;;;;;;;;;2077081;28;20226;-51
2021/07/31 05:16:53;;;;;;;4.18;2.90;;;;;;;;;;2080674;28;20165;-53
2021/07/31 05:17:53;;;;;;;5.65;3.40;;;;;;;;;;2076803;28;20226;-54
2021/07/31 05:18:53;;;;;;;5.97;3.25;;;;;;;;;;2074171;28;20184;-51
2021/07/31 05:19:54;;;;;;;5.15;3.40;;;;;;;;;;2080054;28;20548;-51
2021/07/31 05:20:54;;;;;;;3.90;3.05;;;;;;;;;;2079579;28;20267;-51
2021/07/31 05:21:55;;;;;;;3.92;3.28;;;;;;;;;;2074396;28;20593;-49
2021/07/31 05:22:55;;;;;;;6.18;3.20;;;;;;;;;;2081475;28;20189;-52
2021/07/31 05:23:55;;;;;;;4.60;3.40;;;;;;;;;;2079449;28;20227;-49
2021/07/31 05:24:55;;;;;;;4.53;3.20;;;;;;;;;;2074260;28;20638;-51
2021/07/31 05:25:56;;;;;;;6.07;3.90;;;;;;;;;;2081522;28;20184;-54
2021/07/31 05:26:56;;;;;;;4.03;3.20;;;;;;;;;;2081269;28;20172;-53
2021/07/31 05:27:56;;;;;;;3.83;3.13;;;;;;;;;;2080476;28;20176;-54
2021/07/31 05:28:56;;;;;;;4.38;3.25;;;;;;;;;;2080598;28;20586;-55
2021/07/31 05:29:56;;;;;;;3.45;3.17;;;;;;;;;;2078907;28;21024;-54
2021/07/31 05:30:57;;;;;;;6.45;3.47;;;;;;;;;;2075861;28;20198;-50
2021/07/31 05:31:57;;;;;;;4.22;3.28;;;;;;;;;;2080048;28;20648;-53
2021/07/31 05:32:57;;;;;;;3.92;3.38;;;;;;;;;;2079410;28;20204;-50
2021/07/31 05:33:58;;;;;;;3.50;3.20;;;;;;;;;;2074595;28;20173;-51
2021/07/31 05:34:58;;;;;;;5.60;3.25;;;;;;;;;;2079005;28;20203;-50
2021/07/31 05:36:06;;;;;;;4.68;3.38;;;;;;;;;;2073221;28;20652;-52
2021/07/31 05:37:06;;;;;;;5.68;3.25;;;;;;;;;;2080570;28;20193;-50
2021/07/31 05:38:06;;;;;;;4.07;3.35;;;;;;;;;;2076896;28;20656;-52
2021/07/31 05:39:06;;;;;;;5.40;3.00;;;;;;;;;;2079302;28;20200;-53
2021/07/31 05:40:07;;;;;;;5.18;3.40;;;;;;;;;;2081964;28;20235;-53
2021/07/31 05:41:14;;;;;;;8.00;3.63;;;;;;;;;;2085925;28;20164;-53
2021/07/31 05:42:14;;;;;;;3.08;2.88;;;;;;;;;;2079012;28;20179;-53
2021/07/31 05:43:14;;;;;;;3.58;3.20;;;;;;;;;;2077738;28;20225;-53
2021/07/31 05:44:15;;;;;;;3.25;2.90;;;;;;;;;;2077460;28;20252;-53
2021/07/31 05:45:15;;;;;;;4.53;4.00;;;;;;;;;;2077363;28;20588;-54
2021/07/31 05:46:17;;;;;;;3.85;2.90;;;;;;;;;;2076927;28;20165;-55
2021/07/31 05:47:18;;;;;;;4.97;3.45;;;;;;;;;;2081268;28;20652;-54
2021/07/31 05:48:18;;;;;;;5.30;3.33;;;;;;;;;;2077217;28;20172;-49
2021/07/31 05:49:18;;;;;;;4.05;3.05;;;;;;;;;;2077682;28;20176;-54
2021/07/31 05:50:18;;;;;;;6.75;3.47;;;;;;;;;;2076803;28;20181;-50
2021/07/31 05:51:19;;;;;;;7.72;3.42;;;;;;;;;;2076605;28;20172;-51
2021/07/31 05:52:20;;;;;;;5.50;3.15;;;;;;;;;;2077285;28;20177;-50
2021/07/31 05:53:20;;;;;;;3.25;2.95;;;;;;;;;;2075929;28;20611;-52
2021/07/31 05:54:21;;;;;;;3.47;3.17;;;;;;;;;;2078992;28;20303;-54
2021/07/31 05:55:21;;;;;;;3.40;3.10;;;;;;;;;;2075943;28;20872;-50
2021/07/31 05:56:21;;;;;;;6.03;3.10;;;;;;;;;;2077953;28;20624;-51
2021/07/31 05:57:22;;;;;;;5.03;3.35;;;;;;;;;;2079091;28;20249;-51
2021/07/31 05:58:22;;;;;;;11.00;3.30;;;;;;;;;;2081152;28;20172;-50
2021/07/31 05:59:22;;;;;;;6.38;3.58;;;;;;;;;;2076135;28;20165;-53
2021/07/31 06:00:22;;;;;;;5.90;3.30;;;;;;;;;;2077461;28;20176;-53
2021/07/31 06:01:23;;;;;;;5.65;3.70;;;;;;;;;;2080051;28;20247;-52
2021/07/31 06:02:23;;;;;;;4.93;3.60;;;;;;;;;;2077243;28;20180;-51
2021/07/31 06:03:23;;;;;;;3.72;3.50;;;;;;;;;;2076774;28;20268;-49
2021/07/31 06:04:24;;;;;;;5.28;3.70;;;;;;;;;;2081134;28;20176;-53
2021/07/31 06:05:24;;;;;;;5.90;2.92;;;;;;;;;;2079536;28;20214;-51
2021/07/31 06:06:24;;;;;;;3.65;3.42;;;;;;;;;;2076910;28;20168;-52
2021/07/31 06:07:25;;;;;;;5.88;3.63;;;;;;;;;;2073094;28;20251;-54
2021/07/31 06:08:25;;;;;;;6.70;3.58;;;;;;;;;;2081740;28;20243;-53
2021/07/31 06:09:26;;;;;;;4.20;3.70;;;;;;;;;;2081466;28;20255;-50
2021/07/31 06:10:26;;;;;;;5.90;3.70;;;;;;;;;;2081531;28;20687;-54
2021/07/31 06:11:26;;;;;;;6.22;3.30;;;;;;;;;;2078995;28;20164;-55
2021/07/31 06:12:27;;;;;;;3.83;3.50;;;;;;;;;;2074583;28;20169;-54
2021/07/31 06:13:27;;;;;;;5.13;3.47;;;;;;;;;;2073797;28;20201;-53